createdAt,value
2023-02-26T00:00:15.188Z,11.32
2023-02-26T00:02:42.941Z,14.45
2023-02-26T00:05:09.852Z,12.82
2023-02-26T00:07:36.528Z,13.50
2023-02-26T00:10:04.181Z,9.35
2023-02-26T00:12:32.141Z,6.65
2023-02-26T00:14:59.437Z,11.20
2023-02-26T00:18:15.303Z,11.15
2023-02-26T00:20:44.038Z,7.25
2023-02-26T00:23:18.582Z,7.53
2023-02-26T00:25:46.025Z,11.30
2023-02-26T00:28:13.067Z,7.13
2023-02-26T00:30:40.198Z,18.10
2023-02-26T00:33:07.023Z,13.30
2023-02-26T00:35:34.234Z,22.38
2023-02-26T00:38:07.000Z,16.05
2023-02-26T00:40:49.775Z,16.73
2023-02-26T00:43:19.583Z,11.48
2023-02-26T00:46:25.360Z,6.85
2023-02-26T00:49:18.170Z,20.90
2023-02-26T00:51:59.561Z,10.82
2023-02-26T00:54:28.238Z,16.27
2023-02-26T00:56:56.017Z,15.95
2023-02-26T00:59:23.119Z,14.30
2023-02-26T01:01:50.438Z,6.35
2023-02-26T01:04:19.525Z,8.13
2023-02-26T01:06:49.439Z,7.18
2023-02-26T01:09:30.521Z,11.90
2023-02-26T01:12:03.464Z,7.67
2023-02-26T01:14:32.360Z,7.38
2023-02-26T01:17:25.330Z,8.35
2023-02-26T01:20:00.150Z,7.40
2023-02-26T01:22:55.937Z,4.78
2023-02-26T01:25:44.128Z,10.55
2023-02-26T01:28:10.981Z,9.02
2023-02-26T01:30:38.005Z,7.53
2023-02-26T01:33:35.074Z,9.13
2023-02-26T01:36:03.918Z,8.65
2023-02-26T01:39:14.938Z,7.47
2023-02-26T01:42:00.636Z,8.48
2023-02-26T01:44:42.676Z,9.00
2023-02-26T01:49:45.225Z,7.63
2023-02-26T01:52:49.905Z,6.65
2023-02-26T01:55:26.122Z,7.72
2023-02-26T01:57:56.029Z,12.43
2023-02-26T02:00:23.017Z,16.60
2023-02-26T02:02:50.559Z,14.95
2023-02-26T02:05:26.199Z,11.23
2023-02-26T02:07:52.972Z,11.60
2023-02-26T02:10:19.945Z,8.48
2023-02-26T02:13:03.595Z,8.20
2023-02-26T02:15:37.681Z,12.63
2023-02-26T02:18:19.256Z,15.88
2023-02-26T02:21:03.743Z,9.43
2023-02-26T02:23:47.906Z,10.00
2023-02-26T02:26:40.525Z,9.07
2023-02-26T02:29:33.491Z,7.28
2023-02-26T02:32:28.492Z,10.30
2023-02-26T02:35:03.632Z,10.38
2023-02-26T02:37:48.638Z,12.30
2023-02-26T02:40:37.672Z,10.07
2023-02-26T02:43:09.925Z,11.00
2023-02-26T02:45:49.221Z,12.30
2023-02-26T02:48:32.009Z,9.75
2023-02-26T02:51:04.005Z,7.55
2023-02-26T02:53:49.766Z,11.95
2023-02-26T02:56:45.658Z,12.98
2023-02-26T02:59:18.427Z,13.07
2023-02-26T03:01:45.965Z,12.70
2023-02-26T03:04:15.964Z,10.13
2023-02-26T03:06:42.688Z,11.55
2023-02-26T03:09:10.173Z,20.65
2023-02-26T03:11:37.969Z,8.90
2023-02-26T03:14:05.437Z,13.13
2023-02-26T03:17:09.277Z,11.23
2023-02-26T03:20:00.824Z,9.88
2023-02-26T03:22:43.952Z,10.45
2023-02-26T03:25:41.764Z,10.63
2023-02-26T03:28:36.125Z,16.05
2023-02-26T03:31:13.729Z,12.48
2023-02-26T03:33:57.563Z,11.57
2023-02-26T03:36:39.194Z,12.63
2023-02-26T03:39:12.497Z,18.40
2023-02-26T03:41:54.941Z,14.10
2023-02-26T03:44:29.994Z,9.90
2023-02-26T03:47:01.198Z,8.95
2023-02-26T03:49:33.228Z,12.30
2023-02-26T03:52:02.069Z,10.60
2023-02-26T03:54:42.879Z,8.65
2023-02-26T03:57:09.512Z,15.20
2023-02-26T03:59:36.518Z,6.80
2023-02-26T04:02:09.396Z,10.13
2023-02-26T04:04:42.653Z,9.68
2023-02-26T04:07:14.452Z,9.90
2023-02-26T04:12:11.554Z,12.32
2023-02-26T04:14:38.165Z,6.97
2023-02-26T04:17:04.996Z,10.70
2023-02-26T04:19:31.693Z,14.30
2023-02-26T04:21:58.356Z,10.52
2023-02-26T04:24:24.949Z,8.55
2023-02-26T04:26:51.528Z,9.13
2023-02-26T04:29:18.098Z,9.25
2023-02-26T04:31:44.706Z,10.15
2023-02-26T04:34:11.482Z,7.40
2023-02-26T04:36:38.020Z,13.15
2023-02-26T04:39:04.595Z,11.82
2023-02-26T04:41:31.394Z,10.10
2023-02-26T04:43:57.989Z,11.57
2023-02-26T04:46:25.050Z,9.25
2023-02-26T04:48:52.041Z,6.30
2023-02-26T04:51:18.693Z,9.13
2023-02-26T04:53:45.388Z,9.48
2023-02-26T04:56:12.195Z,8.25
2023-02-26T04:58:38.776Z,12.40
2023-02-26T05:01:05.858Z,12.05
2023-02-26T05:03:32.754Z,7.70
2023-02-26T05:05:59.349Z,4.88
2023-02-26T05:08:26.217Z,11.27
2023-02-26T05:10:52.967Z,5.32
2023-02-26T05:13:20.269Z,9.50
2023-02-26T05:15:47.112Z,11.00
2023-02-26T05:18:13.689Z,7.60
2023-02-26T05:20:40.257Z,8.93
2023-02-26T05:23:07.332Z,8.27
2023-02-26T05:25:34.037Z,9.95
2023-02-26T05:28:00.602Z,8.02
2023-02-26T05:30:27.197Z,12.55
2023-02-26T05:32:54.833Z,8.60
2023-02-26T05:35:21.456Z,11.93
2023-02-26T05:37:48.646Z,5.63
2023-02-26T05:40:15.458Z,7.47
2023-02-26T05:42:42.046Z,7.10
2023-02-26T05:45:09.486Z,7.15
2023-02-26T05:47:36.540Z,12.63
2023-02-26T05:50:05.137Z,5.20
2023-02-26T05:52:31.874Z,9.27
2023-02-26T05:54:58.597Z,13.10
2023-02-26T05:57:25.243Z,6.55
2023-02-26T05:59:51.846Z,8.45
2023-02-26T06:02:18.845Z,10.07
2023-02-26T06:04:45.497Z,5.63
2023-02-26T06:07:12.226Z,5.43
2023-02-26T06:09:38.821Z,8.07
2023-02-26T06:12:06.667Z,7.15
2023-02-26T06:14:33.983Z,8.15
2023-02-26T06:17:00.634Z,5.40
2023-02-26T06:19:27.230Z,4.03
2023-02-26T06:21:53.989Z,7.47
2023-02-26T06:24:20.673Z,9.52
2023-02-26T06:26:47.234Z,5.28
2023-02-26T06:29:13.834Z,6.38
2023-02-26T06:31:40.430Z,4.85
2023-02-26T06:34:07.068Z,7.93
2023-02-26T06:36:33.659Z,8.70
2023-02-26T06:39:00.219Z,5.85
2023-02-26T06:41:26.794Z,3.78
2023-02-26T06:43:53.472Z,4.88
2023-02-26T06:46:20.063Z,6.45
2023-02-26T06:48:46.744Z,8.65
2023-02-26T06:51:13.315Z,10.90
2023-02-26T06:53:40.005Z,9.25
2023-02-26T06:56:06.915Z,7.55
2023-02-26T06:58:33.447Z,6.07
2023-02-26T07:00:59.993Z,6.30
2023-02-26T07:03:26.580Z,7.53
2023-02-26T07:05:53.140Z,6.95
2023-02-26T07:08:19.771Z,7.15
2023-02-26T07:10:49.316Z,8.15
2023-02-26T07:13:17.193Z,5.18
2023-02-26T07:15:46.195Z,5.65
2023-02-26T07:18:12.939Z,6.28
2023-02-26T07:20:39.740Z,6.50
2023-02-26T07:23:06.307Z,5.82
2023-02-26T07:25:32.959Z,6.63
2023-02-26T07:28:00.118Z,5.78
2023-02-26T07:30:27.112Z,6.68
2023-02-26T07:32:54.579Z,4.40
2023-02-26T07:35:21.156Z,3.97
2023-02-26T07:37:47.807Z,4.25
2023-02-26T07:40:14.803Z,5.18
2023-02-26T07:42:41.751Z,5.35
2023-02-26T07:45:08.947Z,9.20
2023-02-26T07:47:35.613Z,5.47
2023-02-26T07:50:02.540Z,6.82
2023-02-26T07:52:29.183Z,5.43
2023-02-26T07:54:55.999Z,11.20
2023-02-26T07:57:22.620Z,6.40
2023-02-26T07:59:49.214Z,6.32
2023-02-26T08:02:16.910Z,8.55
2023-02-26T08:04:43.721Z,11.25
2023-02-26T08:07:10.644Z,7.25
2023-02-26T08:09:37.384Z,4.95
2023-02-26T08:12:04.174Z,5.45
2023-02-26T08:14:30.733Z,6.10
2023-02-26T08:16:57.348Z,4.88
2023-02-26T08:19:24.026Z,4.30
2023-02-26T08:21:50.912Z,4.20
2023-02-26T08:24:17.694Z,7.28
2023-02-26T08:26:46.248Z,4.30
2023-02-26T08:29:13.028Z,4.50
2023-02-26T08:31:39.727Z,4.07
2023-02-26T08:34:06.382Z,6.28
2023-02-26T08:36:33.269Z,7.22
2023-02-26T08:38:59.863Z,7.07
2023-02-26T08:41:29.812Z,4.78
2023-02-26T08:43:56.383Z,4.82
2023-02-26T08:46:23.240Z,3.25
2023-02-26T08:48:49.928Z,4.50
2023-02-26T08:51:16.622Z,6.03
2023-02-26T08:53:45.378Z,5.05
2023-02-26T08:56:12.253Z,4.57
2023-02-26T08:58:38.836Z,6.07
2023-02-26T09:01:05.636Z,7.03
2023-02-26T09:03:32.228Z,6.35
2023-02-26T09:05:58.769Z,5.18
2023-02-26T09:08:25.624Z,4.30
2023-02-26T09:10:52.188Z,5.25
2023-02-26T09:13:19.043Z,3.50
2023-02-26T09:15:45.665Z,5.22
2023-02-26T09:18:15.582Z,4.38
2023-02-26T09:20:44.040Z,10.45
2023-02-26T09:23:11.611Z,4.20
2023-02-26T09:25:38.435Z,3.20
2023-02-26T09:28:05.970Z,4.55
2023-02-26T09:30:32.824Z,3.65
2023-02-26T09:32:59.445Z,4.32
2023-02-26T09:35:26.189Z,9.65
2023-02-26T09:37:52.876Z,4.35
2023-02-26T09:40:30.356Z,4.55
2023-02-26T09:43:02.397Z,5.50
2023-02-26T09:45:34.707Z,5.60
2023-02-26T09:48:05.225Z,5.78
2023-02-26T09:50:44.029Z,3.75
2023-02-26T09:53:40.565Z,5.68
2023-02-26T09:56:23.728Z,5.43
2023-02-26T09:58:54.010Z,5.65
2023-02-26T10:01:23.181Z,3.45
2023-02-26T10:04:31.104Z,4.43
2023-02-26T10:06:58.379Z,4.00
2023-02-26T10:09:49.958Z,4.57
2023-02-26T10:12:20.362Z,4.35
2023-02-26T10:14:59.131Z,5.25
2023-02-26T10:17:47.819Z,6.30
2023-02-26T10:20:51.991Z,2.70
2023-02-26T10:23:26.487Z,6.45
2023-02-26T10:25:58.842Z,4.93
2023-02-26T10:28:55.007Z,3.72
2023-02-26T10:31:28.320Z,2.28
2023-02-26T10:33:58.119Z,4.60
2023-02-26T10:36:58.459Z,4.30
2023-02-26T10:39:37.648Z,3.42
2023-02-26T10:42:13.634Z,3.85
2023-02-26T10:44:52.133Z,4.20
2023-02-26T10:47:39.999Z,5.38
2023-02-26T10:50:14.590Z,4.03
2023-02-26T10:52:43.717Z,7.05
2023-02-26T10:55:47.329Z,2.97
2023-02-26T10:58:27.111Z,4.68
2023-02-26T11:00:56.022Z,3.50
2023-02-26T11:03:36.323Z,3.85
2023-02-26T11:06:04.868Z,2.95
2023-02-26T11:08:39.839Z,7.50
2023-02-26T11:11:07.248Z,5.57
2023-02-26T11:13:36.945Z,2.25
2023-02-26T11:16:14.104Z,2.65
2023-02-26T11:18:44.807Z,3.28
2023-02-26T11:21:19.751Z,6.38
2023-02-26T11:23:47.377Z,2.67
2023-02-26T11:26:18.683Z,3.67
2023-02-26T11:28:49.898Z,2.50
2023-02-26T11:31:19.997Z,1.77
2023-02-26T11:34:02.492Z,6.47
2023-02-26T11:36:31.676Z,4.78
2023-02-26T11:39:05.198Z,3.30
2023-02-26T11:41:37.698Z,4.70
2023-02-26T11:44:13.703Z,4.00
2023-02-26T11:46:46.861Z,2.38
2023-02-26T11:49:16.705Z,1.67
2023-02-26T11:51:47.114Z,2.38
2023-02-26T11:54:24.117Z,4.50
2023-02-26T11:56:51.001Z,1.92
2023-02-26T11:59:19.101Z,1.80
2023-02-26T12:01:46.732Z,1.88
2023-02-26T12:04:15.583Z,1.45
2023-02-26T12:06:42.185Z,2.40
2023-02-26T12:09:13.574Z,4.10
2023-02-26T12:12:00.880Z,1.90
2023-02-26T12:14:37.761Z,4.18
2023-02-26T12:17:14.043Z,2.58
2023-02-26T12:19:40.625Z,2.30
2023-02-26T12:22:48.878Z,2.35
2023-02-26T12:25:15.514Z,3.65
2023-02-26T12:27:50.979Z,3.35
2023-02-26T12:30:55.138Z,2.15
2023-02-26T12:33:40.109Z,1.45
2023-02-26T12:36:18.790Z,1.88
2023-02-26T12:39:11.164Z,1.63
2023-02-26T12:42:18.365Z,1.67
2023-02-26T12:45:26.886Z,2.35
2023-02-26T12:48:17.533Z,3.63
2023-02-26T12:50:59.288Z,1.98
2023-02-26T12:53:56.805Z,2.45
2023-02-26T12:56:42.022Z,3.75
2023-02-26T12:59:23.939Z,2.10
2023-02-26T13:02:02.696Z,5.43
2023-02-26T13:04:55.445Z,3.47
2023-02-26T13:07:40.836Z,1.98
2023-02-26T13:10:55.990Z,4.20
2023-02-26T13:13:31.330Z,1.50
2023-02-26T13:16:07.416Z,1.50
2023-02-26T13:18:48.955Z,2.38
2023-02-26T13:21:23.546Z,2.35
2023-02-26T13:24:05.257Z,3.53
2023-02-26T13:26:33.287Z,3.53
2023-02-26T13:29:15.079Z,1.15
2023-02-26T13:31:50.824Z,1.20
2023-02-26T13:34:26.431Z,3.10
2023-02-26T13:36:53.739Z,2.90
2023-02-26T13:39:57.436Z,2.90
2023-02-26T13:43:00.162Z,1.73
2023-02-26T13:45:49.660Z,2.20
2023-02-26T13:48:41.005Z,2.65
2023-02-26T13:51:11.634Z,4.40
2023-02-26T13:53:40.968Z,1.33
2023-02-26T13:56:32.206Z,3.15
2023-02-26T13:59:45.327Z,3.35
2023-02-26T14:02:20.789Z,1.83
2023-02-26T14:04:51.577Z,2.00
2023-02-26T14:07:46.798Z,1.40
2023-02-26T14:10:25.855Z,3.03
2023-02-26T14:13:23.185Z,2.60
2023-02-26T14:15:50.127Z,4.80
2023-02-26T14:18:41.356Z,2.08
2023-02-26T14:21:27.240Z,2.38
2023-02-26T14:24:14.403Z,2.53
2023-02-26T14:26:49.777Z,2.05
2023-02-26T14:29:37.596Z,2.83
2023-02-26T14:32:11.982Z,1.92
2023-02-26T14:35:03.228Z,2.97
2023-02-26T14:37:33.229Z,1.67
2023-02-26T14:40:21.832Z,1.70
2023-02-26T14:42:59.296Z,1.88
2023-02-26T14:45:46.150Z,1.85
2023-02-26T14:48:24.817Z,2.70
2023-02-26T14:51:29.096Z,1.02
2023-02-26T14:54:07.916Z,2.42
2023-02-26T14:57:03.218Z,1.63
2023-02-26T14:59:29.892Z,1.20
2023-02-26T15:02:32.540Z,2.60
2023-02-26T15:05:22.236Z,7.53
2023-02-26T15:07:54.706Z,5.80
2023-02-26T15:10:48.500Z,9.00
2023-02-26T15:13:44.378Z,12.30
2023-02-26T15:16:26.145Z,4.90
2023-02-26T15:19:22.746Z,3.92
2023-02-26T15:22:15.521Z,3.53
2023-02-26T15:24:42.294Z,2.65
2023-02-26T15:27:15.136Z,3.22
2023-02-26T15:29:42.614Z,7.18
2023-02-26T15:32:30.823Z,3.10
2023-02-26T15:35:28.521Z,3.28
2023-02-26T15:37:57.976Z,2.40
2023-02-26T15:40:27.436Z,2.42
2023-02-26T15:42:57.109Z,2.08
2023-02-26T15:45:27.529Z,2.78
2023-02-26T15:48:01.774Z,5.10
2023-02-26T15:50:33.889Z,3.05
2023-02-26T15:53:03.112Z,2.05
2023-02-26T15:55:35.916Z,2.70
2023-02-26T15:58:05.120Z,3.88
2023-02-26T16:00:35.557Z,0.90
2023-02-26T16:03:02.332Z,4.30
2023-02-26T16:05:29.836Z,2.30
2023-02-26T16:07:56.916Z,2.95
2023-02-26T16:10:34.783Z,3.45
2023-02-26T16:13:02.331Z,2.13
2023-02-26T16:15:39.567Z,2.47
2023-02-26T16:18:10.128Z,2.55
2023-02-26T16:20:44.519Z,2.42
2023-02-26T16:23:41.751Z,3.00
2023-02-26T16:26:13.302Z,2.15
2023-02-26T16:28:45.919Z,3.22
2023-02-26T16:31:21.939Z,2.88
2023-02-26T16:33:54.549Z,1.58
2023-02-26T16:36:26.231Z,4.43
2023-02-26T16:39:00.435Z,2.70
2023-02-26T16:41:30.953Z,2.53
2023-02-26T16:44:01.329Z,1.90
2023-02-26T16:46:32.976Z,1.90
2023-02-26T16:49:04.226Z,2.67
2023-02-26T16:51:35.037Z,1.70
2023-02-26T16:54:07.675Z,2.78
2023-02-26T16:56:39.010Z,2.65
2023-02-26T16:59:20.425Z,4.03
2023-02-26T17:01:55.454Z,4.57
2023-02-26T17:04:30.060Z,3.72
2023-02-26T17:06:56.944Z,2.08
2023-02-26T17:09:34.320Z,2.58
2023-02-26T17:12:20.013Z,5.07
2023-02-26T17:14:53.256Z,1.45
2023-02-26T17:17:20.248Z,1.23
2023-02-26T17:19:46.801Z,2.88
2023-02-26T17:22:17.341Z,1.48
2023-02-26T17:24:45.672Z,2.95
2023-02-26T17:27:18.283Z,2.53
2023-02-26T17:29:50.930Z,1.75
2023-02-26T17:32:23.963Z,1.70
2023-02-26T17:34:51.662Z,5.40
2023-02-26T17:37:19.104Z,3.35
2023-02-26T17:39:46.298Z,2.50
2023-02-26T17:42:23.054Z,3.03
2023-02-26T17:44:50.651Z,2.78
2023-02-26T17:47:20.012Z,3.53
2023-02-26T17:49:47.064Z,1.73
2023-02-26T17:52:14.368Z,2.30
2023-02-26T17:54:41.062Z,2.88
2023-02-26T17:57:10.663Z,4.90
2023-02-26T17:59:37.220Z,4.30
2023-02-26T18:02:16.287Z,5.57
2023-02-26T18:04:42.871Z,6.18
2023-02-26T18:07:16.382Z,3.38
2023-02-26T18:09:44.428Z,5.82
2023-02-26T18:12:14.337Z,5.57
2023-02-26T18:14:40.903Z,3.42
2023-02-26T18:17:12.535Z,4.10
2023-02-26T18:19:39.093Z,3.50
2023-02-26T18:22:05.630Z,2.95
2023-02-26T18:24:32.374Z,1.80
2023-02-26T18:26:58.954Z,4.00
2023-02-26T18:29:25.499Z,2.28
2023-02-26T18:31:52.180Z,1.70
2023-02-26T18:34:18.828Z,2.15
2023-02-26T18:36:45.424Z,3.35
2023-02-26T18:39:20.356Z,4.13
2023-02-26T18:41:47.164Z,2.15
2023-02-26T18:44:13.715Z,3.92
2023-02-26T18:46:41.820Z,4.32
2023-02-26T18:49:17.900Z,2.78
2023-02-26T18:51:44.682Z,2.95
2023-02-26T18:54:11.294Z,3.42
2023-02-26T18:56:38.712Z,1.70
2023-02-26T18:59:05.564Z,3.22
2023-02-26T19:01:32.312Z,4.35
2023-02-26T19:03:59.053Z,3.25
2023-02-26T19:06:25.622Z,1.85
2023-02-26T19:08:52.181Z,3.13
2023-02-26T19:11:18.824Z,1.83
2023-02-26T19:13:45.594Z,2.80
2023-02-26T19:16:12.268Z,3.33
2023-02-26T19:18:38.916Z,3.45
2023-02-26T19:21:06.191Z,3.08
2023-02-26T19:23:32.860Z,4.70
2023-02-26T19:25:59.484Z,2.92
2023-02-26T19:28:26.071Z,5.35
2023-02-26T19:30:55.854Z,3.78
2023-02-26T19:33:23.924Z,2.22
2023-02-26T19:35:51.440Z,2.10
2023-02-26T19:38:18.093Z,5.28
2023-02-26T19:40:45.059Z,4.88
2023-02-26T19:43:11.734Z,9.80
2023-02-26T19:45:38.400Z,6.25
2023-02-26T19:48:04.980Z,11.20
2023-02-26T19:50:31.985Z,5.50
2023-02-26T19:52:58.808Z,3.97
2023-02-26T19:55:25.360Z,7.97
2023-02-26T19:57:51.913Z,5.63
2023-02-26T20:00:18.652Z,5.05
2023-02-26T20:02:45.966Z,5.00
2023-02-26T20:05:16.998Z,4.68
2023-02-26T20:07:48.195Z,6.15
2023-02-26T20:10:15.893Z,3.20
2023-02-26T20:12:44.432Z,4.85
2023-02-26T20:15:12.202Z,4.88
2023-02-26T20:17:39.371Z,4.47
2023-02-26T20:20:06.989Z,3.63
2023-02-26T20:22:33.611Z,4.05
2023-02-26T20:25:00.567Z,3.50
2023-02-26T20:27:27.257Z,3.50
2023-02-26T20:29:53.817Z,5.07
2023-02-26T20:32:20.697Z,3.08
2023-02-26T20:34:47.428Z,5.70
2023-02-26T20:37:13.963Z,4.78
2023-02-26T20:39:40.541Z,5.30
2023-02-26T20:42:07.091Z,3.15
2023-02-26T20:44:33.693Z,4.10
2023-02-26T20:47:02.452Z,4.18
2023-02-26T20:49:30.298Z,4.18
2023-02-26T20:51:57.466Z,2.05
2023-02-26T20:54:24.297Z,3.60
2023-02-26T20:56:51.050Z,3.15
2023-02-26T20:59:18.576Z,4.75
2023-02-26T21:01:46.845Z,4.10
2023-02-26T21:04:13.661Z,3.55
2023-02-26T21:06:40.377Z,1.92
2023-02-26T21:09:08.611Z,2.97
2023-02-26T21:11:36.888Z,3.13
2023-02-26T21:14:05.539Z,4.32
2023-02-26T21:16:32.392Z,4.20
2023-02-26T21:19:00.387Z,4.05
2023-02-26T21:21:27.813Z,4.28
2023-02-26T21:23:54.560Z,6.75
2023-02-26T21:26:23.003Z,2.53
2023-02-26T21:28:50.032Z,3.97
2023-02-26T21:31:19.277Z,6.45
2023-02-26T21:33:46.404Z,2.80
2023-02-26T21:36:14.152Z,5.70
2023-02-26T21:38:41.042Z,3.13
2023-02-26T21:41:07.759Z,1.50
2023-02-26T21:43:34.390Z,1.83
2023-02-26T21:46:00.970Z,4.97
2023-02-26T21:48:27.577Z,3.38
2023-02-26T21:50:56.548Z,2.38
2023-02-26T21:53:23.483Z,9.50
2023-02-26T21:55:50.052Z,4.03
2023-02-26T21:58:16.794Z,3.60
2023-02-26T22:00:44.366Z,4.80
2023-02-26T22:03:11.465Z,3.92
2023-02-26T22:05:38.123Z,4.95
2023-02-26T22:08:05.004Z,5.03
2023-02-26T22:10:31.587Z,4.40
2023-02-26T22:12:58.299Z,2.63
2023-02-26T22:15:25.206Z,2.40
2023-02-26T22:17:51.747Z,4.15
2023-02-26T22:20:18.475Z,4.03
2023-02-26T22:22:45.168Z,3.47
2023-02-26T22:25:12.410Z,1.85
2023-02-26T22:27:39.566Z,2.72
2023-02-26T22:30:07.827Z,3.15
2023-02-26T22:32:34.560Z,3.35
2023-02-26T22:35:01.204Z,3.67
2023-02-26T22:37:27.834Z,2.83
2023-02-26T22:39:54.418Z,3.83
2023-02-26T22:42:20.977Z,2.25
2023-02-26T22:44:47.583Z,5.22
2023-02-26T22:47:14.210Z,3.40
2023-02-26T22:49:40.754Z,6.07
2023-02-26T22:52:07.943Z,3.03
2023-02-26T22:54:35.805Z,4.78
2023-02-26T22:57:02.606Z,3.42
2023-02-26T22:59:29.138Z,3.15
2023-02-26T23:01:55.724Z,5.15
2023-02-26T23:04:22.448Z,4.25
2023-02-26T23:06:49.093Z,2.90
2023-02-26T23:09:15.870Z,2.60
2023-02-26T23:11:42.642Z,1.55
2023-02-26T23:14:09.225Z,1.23
2023-02-26T23:16:35.780Z,4.82
2023-02-26T23:19:02.802Z,3.90
2023-02-26T23:21:30.948Z,3.63
2023-02-26T23:23:58.144Z,2.83
2023-02-26T23:26:25.311Z,3.35
2023-02-26T23:28:52.080Z,2.30
2023-02-26T23:31:18.788Z,1.75
2023-02-26T23:33:45.408Z,2.80
2023-02-26T23:36:11.985Z,3.08
2023-02-26T23:38:38.842Z,4.03
2023-02-26T23:41:05.538Z,3.35
2023-02-26T23:43:32.436Z,4.53
2023-02-26T23:45:59.072Z,4.03
2023-02-26T23:48:27.371Z,2.47
2023-02-26T23:50:54.635Z,2.70
2023-02-26T23:53:21.567Z,3.30
2023-02-26T23:55:49.189Z,3.03
2023-02-26T23:58:15.763Z,2.55
